createdAt,value
2019-05-22T00:00:31.326Z,100.00
2019-05-22T00:03:03.338Z,100.00
2019-05-22T00:05:38.148Z,100.00
2019-05-22T00:08:13.364Z,100.00
2019-05-22T00:10:46.251Z,100.00
2019-05-22T00:13:18.646Z,100.00
2019-05-22T00:15:50.136Z,100.00
2019-05-22T00:18:21.519Z,100.00
2019-05-22T00:20:51.518Z,100.00
2019-05-22T00:23:22.716Z,100.00
2019-05-22T00:25:54.445Z,100.00
2019-05-22T00:28:25.526Z,100.00
2019-05-22T00:30:57.416Z,100.00
2019-05-22T00:33:27.468Z,100.00
2019-05-22T00:35:59.566Z,100.00
2019-05-22T00:38:31.673Z,100.00
2019-05-22T00:41:03.294Z,100.00
2019-05-22T00:43:34.967Z,100.00
2019-05-22T00:46:05.411Z,100.00
2019-05-22T00:48:36.768Z,100.00
2019-05-22T00:51:10.237Z,100.00
2019-05-22T00:53:44.346Z,100.00
2019-05-22T00:56:17.017Z,100.00
2019-05-22T00:58:50.327Z,100.00
2019-05-22T01:01:22.243Z,100.00
2019-05-22T01:03:53.761Z,100.00
2019-05-22T01:06:25.727Z,100.00
2019-05-22T01:08:56.824Z,100.00
2019-05-22T01:11:29.069Z,100.00
2019-05-22T01:14:01.500Z,100.00
2019-05-22T01:16:32.924Z,100.00
2019-05-22T01:19:03.318Z,100.00
2019-05-22T01:21:33.764Z,100.00
2019-05-22T01:24:04.600Z,100.00
2019-05-22T01:26:36.000Z,100.00
2019-05-22T01:29:08.394Z,100.00
2019-05-22T01:31:40.490Z,100.00
2019-05-22T01:34:16.208Z,100.00
2019-05-22T01:36:47.319Z,100.00
2019-05-22T01:39:30.805Z,100.00
2019-05-22T01:42:02.823Z,100.00
2019-05-22T01:44:34.725Z,100.00
2019-05-22T01:47:09.298Z,100.00
2019-05-22T01:49:43.779Z,100.00
2019-05-22T01:52:15.482Z,100.00
2019-05-22T01:54:46.627Z,100.00
2019-05-22T01:57:18.045Z,100.00
2019-05-22T01:59:48.111Z,100.00
2019-05-22T02:02:19.443Z,100.00
2019-05-22T02:04:49.237Z,100.00
2019-05-22T02:07:20.793Z,100.00
2019-05-22T02:09:52.461Z,100.00
2019-05-22T02:12:26.906Z,100.00
2019-05-22T02:14:58.324Z,100.00
2019-05-22T02:17:31.905Z,100.00
2019-05-22T02:20:02.404Z,100.00
2019-05-22T02:22:32.326Z,100.00
2019-05-22T02:25:02.885Z,100.00
2019-05-22T02:27:34.350Z,100.00
2019-05-22T02:30:05.745Z,100.00
2019-05-22T02:32:37.948Z,100.00
2019-05-22T02:35:09.398Z,100.00
2019-05-22T02:37:41.264Z,100.00
2019-05-22T02:40:23.929Z,100.00
2019-05-22T02:42:54.498Z,100.00
2019-05-22T02:45:25.607Z,100.00
2019-05-22T02:47:57.214Z,100.00
2019-05-22T02:50:27.804Z,100.00
2019-05-22T02:52:59.314Z,100.00
2019-05-22T02:55:29.036Z,100.00
2019-05-22T02:57:59.310Z,100.00
2019-05-22T03:00:33.781Z,100.00
2019-05-22T03:03:06.256Z,100.00
2019-05-22T03:05:37.672Z,100.00
2019-05-22T03:08:09.614Z,100.00
2019-05-22T03:10:39.422Z,100.00
2019-05-22T03:13:11.081Z,100.00
2019-05-22T03:15:42.440Z,100.00
2019-05-22T03:18:13.918Z,100.00
2019-05-22T03:20:43.720Z,100.00
2019-05-22T03:23:33.636Z,100.00
2019-05-22T03:26:04.415Z,100.00
2019-05-22T03:28:35.123Z,100.00
2019-05-22T03:31:07.036Z,100.00
2019-05-22T03:33:37.303Z,100.00
2019-05-22T03:36:16.175Z,100.00
2019-05-22T03:38:46.918Z,100.00
2019-05-22T03:41:18.622Z,100.00
2019-05-22T03:43:50.886Z,100.00
2019-05-22T03:46:23.771Z,100.00
2019-05-22T03:48:56.824Z,100.00
2019-05-22T03:51:26.774Z,100.00
2019-05-22T03:53:57.272Z,100.00
2019-05-22T03:56:27.129Z,100.00
2019-05-22T03:58:57.360Z,100.00
2019-05-22T04:01:28.947Z,100.00
2019-05-22T04:03:59.780Z,100.00
2019-05-22T04:06:29.775Z,100.00
2019-05-22T04:09:02.615Z,100.00
2019-05-22T04:11:38.850Z,100.00
2019-05-22T04:14:08.871Z,100.00
2019-05-22T04:16:38.886Z,100.00
2019-05-22T04:19:09.742Z,100.00
2019-05-22T04:21:39.623Z,100.00
2019-05-22T04:24:09.852Z,100.00
2019-05-22T04:26:39.794Z,100.00
2019-05-22T04:29:09.799Z,100.00
2019-05-22T04:31:46.181Z,100.00
2019-05-22T04:34:16.105Z,100.00
2019-05-22T04:36:47.035Z,100.00
2019-05-22T04:39:22.275Z,100.00
2019-05-22T04:41:52.845Z,100.00
2019-05-22T04:44:22.947Z,100.00
2019-05-22T04:46:52.855Z,100.00
2019-05-22T04:49:22.725Z,100.00
2019-05-22T04:51:52.719Z,100.00
2019-05-22T04:54:22.485Z,100.00
2019-05-22T04:56:53.607Z,100.00
2019-05-22T04:59:24.205Z,100.00
2019-05-22T05:01:54.054Z,100.00
2019-05-22T05:04:24.298Z,100.00
2019-05-22T05:06:54.859Z,100.00
2019-05-22T05:09:25.413Z,100.00
2019-05-22T05:11:55.719Z,100.00
2019-05-22T05:14:26.321Z,100.00
2019-05-22T05:16:56.594Z,100.00
2019-05-22T05:19:27.274Z,100.00
2019-05-22T05:21:57.186Z,100.00
2019-05-22T05:24:27.016Z,100.00
2019-05-22T05:26:58.019Z,100.00
2019-05-22T05:29:29.608Z,100.00
2019-05-22T05:32:00.554Z,100.00
2019-05-22T05:34:39.585Z,100.00
2019-05-22T05:37:10.306Z,100.00
2019-05-22T05:39:44.155Z,100.00
2019-05-22T05:42:13.919Z,100.00
2019-05-22T05:44:43.814Z,100.00
2019-05-22T05:47:19.176Z,100.00
2019-05-22T05:49:50.562Z,100.00
2019-05-22T05:52:21.248Z,100.00
2019-05-22T05:54:51.685Z,100.00
2019-05-22T05:57:40.742Z,100.00
2019-05-22T06:00:33.248Z,100.00
2019-05-22T06:03:36.042Z,100.00
2019-05-22T06:06:25.127Z,100.00
2019-05-22T06:08:56.780Z,100.00
2019-05-22T06:11:42.788Z,100.00
2019-05-22T06:14:21.461Z,100.00
2019-05-22T06:17:07.816Z,100.00
2019-05-22T06:19:43.873Z,100.00
2019-05-22T06:22:15.121Z,100.00
2019-05-22T06:25:01.484Z,100.00
2019-05-22T06:27:43.720Z,100.00
2019-05-22T06:30:17.674Z,100.00
2019-05-22T06:33:13.248Z,100.00
2019-05-22T06:35:46.063Z,100.00
2019-05-22T06:38:19.142Z,100.00
2019-05-22T06:40:49.310Z,100.00
2019-05-22T06:43:25.775Z,100.00
2019-05-22T06:46:01.377Z,100.00
2019-05-22T06:48:31.097Z,100.00
2019-05-22T06:51:00.930Z,100.00
2019-05-22T06:53:30.695Z,100.00
2019-05-22T06:56:00.489Z,100.00
2019-05-22T06:58:31.153Z,100.00
2019-05-22T07:01:01.180Z,100.00
2019-05-22T07:03:33.086Z,100.00
2019-05-22T07:06:03.981Z,100.00
2019-05-22T07:08:33.898Z,100.00
2019-05-22T07:11:04.589Z,100.00
2019-05-22T07:13:35.587Z,100.00
2019-05-22T07:16:06.167Z,100.00
2019-05-22T07:18:36.359Z,100.00
2019-05-22T07:21:06.695Z,100.00
2019-05-22T07:23:37.221Z,100.00
2019-05-22T07:26:08.382Z,100.00
2019-05-22T07:28:38.784Z,100.00
2019-05-22T07:31:08.568Z,100.00
2019-05-22T07:33:38.333Z,100.00
2019-05-22T07:36:12.122Z,100.00
2019-05-22T07:38:40.338Z,100.00
2019-05-22T07:41:10.445Z,100.00
2019-05-22T07:43:41.900Z,100.00
2019-05-22T07:46:12.044Z,100.00
2019-05-22T07:48:46.270Z,100.00
2019-05-22T07:51:17.512Z,100.00
2019-05-22T07:53:47.476Z,100.00
2019-05-22T07:56:18.470Z,100.00
2019-05-22T07:58:48.821Z,100.00
2019-05-22T08:01:20.396Z,100.00
2019-05-22T08:03:50.874Z,100.00
2019-05-22T08:06:21.835Z,100.00
2019-05-22T08:08:54.066Z,100.00
2019-05-22T08:11:26.271Z,100.00
2019-05-22T08:13:57.342Z,100.00
2019-05-22T08:16:28.381Z,100.00
2019-05-22T08:18:58.120Z,100.00
2019-05-22T08:21:28.272Z,100.00
2019-05-22T08:23:59.019Z,100.00
2019-05-22T08:26:29.766Z,100.00
2019-05-22T08:29:01.710Z,100.00
2019-05-22T08:31:32.247Z,100.00
2019-05-22T08:34:03.056Z,100.00
2019-05-22T08:36:33.196Z,100.00
2019-05-22T08:39:03.827Z,100.00
2019-05-22T08:41:37.156Z,100.00
2019-05-22T08:44:17.585Z,100.00
2019-05-22T08:46:40.215Z,100.00
2019-05-22T08:49:10.369Z,100.00
2019-05-22T08:51:40.059Z,100.00
2019-05-22T08:54:10.106Z,100.00
2019-05-22T08:56:42.854Z,100.00
2019-05-22T08:59:19.470Z,100.00
2019-05-22T09:01:46.505Z,100.00
2019-05-22T09:04:16.526Z,100.00
2019-05-22T09:06:46.835Z,100.00
2019-05-22T09:09:17.150Z,100.00
2019-05-22T09:11:46.840Z,100.00
2019-05-22T09:14:16.619Z,100.00
2019-05-22T09:16:48.149Z,100.00
2019-05-22T09:19:18.129Z,100.00
2019-05-22T09:21:48.251Z,100.00
2019-05-22T09:24:19.682Z,100.00
2019-05-22T09:26:49.484Z,100.00
2019-05-22T09:29:19.305Z,100.00
2019-05-22T09:31:49.237Z,100.00
2019-05-22T09:34:19.394Z,100.00
2019-05-22T09:36:49.176Z,100.00
2019-05-22T09:39:19.806Z,100.00
2019-05-22T09:41:49.655Z,100.00
2019-05-22T09:44:19.784Z,100.00
2019-05-22T09:46:49.749Z,100.00
2019-05-22T09:49:23.625Z,100.00
2019-05-22T09:51:51.541Z,100.00
2019-05-22T09:54:22.106Z,100.00
2019-05-22T09:56:51.965Z,100.00
2019-05-22T09:59:21.670Z,100.00
2019-05-22T10:01:51.383Z,100.00
2019-05-22T10:04:21.909Z,100.00
2019-05-22T10:06:52.035Z,100.00
2019-05-22T10:09:21.975Z,100.00
2019-05-22T10:11:51.782Z,100.00
2019-05-22T10:14:22.018Z,100.00
2019-05-22T10:16:52.168Z,100.00
2019-05-22T10:19:22.201Z,100.00
2019-05-22T10:21:53.106Z,100.00
2019-05-22T10:24:22.898Z,100.00
2019-05-22T10:26:53.132Z,100.00
2019-05-22T10:29:23.053Z,100.00
2019-05-22T10:31:52.982Z,100.00
2019-05-22T10:34:22.764Z,100.00
2019-05-22T10:36:52.551Z,100.00
2019-05-22T10:39:24.864Z,100.00
2019-05-22T10:41:54.839Z,100.00
2019-05-22T10:44:24.760Z,100.00
2019-05-22T10:46:54.588Z,100.00
2019-05-22T10:49:24.323Z,100.00
2019-05-22T10:51:54.123Z,100.00
2019-05-22T10:54:23.892Z,100.00
2019-05-22T10:56:53.806Z,100.00
2019-05-22T10:59:24.059Z,100.00
2019-05-22T11:01:53.892Z,100.00
2019-05-22T11:04:24.679Z,100.00
2019-05-22T11:06:56.204Z,100.00
2019-05-22T11:09:28.299Z,100.00
2019-05-22T11:11:58.120Z,100.00
2019-05-22T11:14:28.346Z,100.00
2019-05-22T11:17:01.344Z,100.00
2019-05-22T11:19:31.342Z,100.00
2019-05-22T11:22:01.654Z,100.00
2019-05-22T11:24:31.764Z,100.00
2019-05-22T11:27:02.211Z,100.00
2019-05-22T11:29:32.074Z,100.00
2019-05-22T11:32:01.903Z,100.00
2019-05-22T11:34:31.901Z,100.00
2019-05-22T11:37:01.661Z,100.00
2019-05-22T11:39:39.450Z,100.00
2019-05-22T11:42:05.919Z,100.00
2019-05-22T11:44:35.931Z,100.00
2019-05-22T11:47:09.351Z,100.00
2019-05-22T11:49:40.021Z,100.00
2019-05-22T11:52:10.908Z,100.00
2019-05-22T11:54:40.823Z,100.00
2019-05-22T11:57:12.051Z,100.00
2019-05-22T11:59:42.722Z,100.00
2019-05-22T12:02:13.418Z,100.00
2019-05-22T12:04:47.990Z,100.00
2019-05-22T12:07:15.744Z,100.00
2019-05-22T12:09:45.581Z,100.00
2019-05-22T12:12:16.419Z,100.00
2019-05-22T12:14:46.429Z,100.00
2019-05-22T12:17:16.418Z,100.00
2019-05-22T12:19:46.497Z,100.00
2019-05-22T12:22:19.801Z,100.00
2019-05-22T12:24:48.723Z,99.87
2019-05-22T12:27:18.507Z,98.64
2019-05-22T12:29:49.806Z,98.34
2019-05-22T12:32:20.641Z,96.06
2019-05-22T12:34:50.423Z,96.55
2019-05-22T12:37:20.448Z,98.27
2019-05-22T12:39:50.534Z,96.72
2019-05-22T12:42:20.887Z,96.99
2019-05-22T12:44:51.016Z,95.06
2019-05-22T12:47:22.082Z,95.13
2019-05-22T12:49:52.840Z,94.00
2019-05-22T12:52:22.576Z,93.63
2019-05-22T12:54:53.433Z,93.67
2019-05-22T12:57:24.951Z,93.13
2019-05-22T12:59:56.042Z,92.70
2019-05-22T13:02:26.728Z,92.32
2019-05-22T13:04:57.959Z,93.51
2019-05-22T13:07:28.527Z,93.32
2019-05-22T13:09:58.690Z,92.49
2019-05-22T13:12:28.525Z,92.75
2019-05-22T13:15:09.183Z,92.85
2019-05-22T13:17:31.350Z,91.13
2019-05-22T13:20:03.172Z,91.92
2019-05-22T13:22:34.666Z,92.13
2019-05-22T13:25:09.520Z,91.32
2019-05-22T13:27:39.903Z,91.95
2019-05-22T13:30:13.099Z,93.07
2019-05-22T13:32:44.685Z,92.48
2019-05-22T13:35:17.852Z,91.98
2019-05-22T13:37:47.990Z,91.93
2019-05-22T13:40:27.612Z,92.28
2019-05-22T13:42:50.510Z,91.23
2019-05-22T13:45:29.303Z,91.77
2019-05-22T13:47:54.125Z,90.30
2019-05-22T13:50:28.292Z,89.69
2019-05-22T13:52:56.272Z,88.53
2019-05-22T13:55:26.651Z,87.93
2019-05-22T13:57:58.241Z,87.72
2019-05-22T14:00:30.903Z,88.91
2019-05-22T14:03:00.394Z,88.04
2019-05-22T14:05:31.128Z,87.83
2019-05-22T14:08:01.542Z,85.99
2019-05-22T14:10:34.083Z,86.12
2019-05-22T14:13:04.487Z,82.89
2019-05-22T14:15:48.829Z,83.15
2019-05-22T14:18:06.593Z,82.30
2019-05-22T14:20:37.738Z,82.64
2019-05-22T14:23:07.722Z,82.19
2019-05-22T14:25:37.885Z,82.24
2019-05-22T14:28:08.773Z,81.52
2019-05-22T14:30:39.060Z,81.65
2019-05-22T14:33:09.234Z,82.75
2019-05-22T14:35:48.461Z,83.50
2019-05-22T14:38:12.908Z,80.93
2019-05-22T14:40:43.217Z,80.21
2019-05-22T14:43:13.498Z,81.55
2019-05-22T14:45:43.726Z,76.80
2019-05-22T14:48:14.955Z,78.30
2019-05-22T14:50:45.565Z,76.46
2019-05-22T14:53:15.851Z,77.57
2019-05-22T14:55:47.243Z,78.79
2019-05-22T14:58:17.925Z,78.39
2019-05-22T15:00:48.098Z,80.33
2019-05-22T15:03:19.640Z,79.17
2019-05-22T15:05:50.402Z,77.41
2019-05-22T15:08:20.258Z,79.19
2019-05-22T15:10:50.438Z,76.35
2019-05-22T15:13:20.412Z,77.24
2019-05-22T15:15:50.403Z,78.01
2019-05-22T15:18:20.257Z,77.69
2019-05-22T15:20:58.693Z,77.69
2019-05-22T15:23:28.812Z,78.74
2019-05-22T15:26:00.109Z,79.13
2019-05-22T15:28:31.025Z,77.69
2019-05-22T15:31:02.013Z,80.19
2019-05-22T15:33:32.971Z,78.93
2019-05-22T15:36:06.973Z,78.28
2019-05-22T15:38:39.872Z,79.95
2019-05-22T15:41:11.128Z,77.43
2019-05-22T15:43:44.701Z,77.35
2019-05-22T15:46:15.659Z,76.14
2019-05-22T15:48:47.544Z,76.49
2019-05-22T15:51:21.205Z,76.57
2019-05-22T15:53:52.466Z,76.38
2019-05-22T15:56:23.632Z,76.58
2019-05-22T15:58:55.637Z,78.10
2019-05-22T16:01:26.580Z,78.07
2019-05-22T16:03:58.127Z,76.54
2019-05-22T16:06:30.693Z,78.02
2019-05-22T16:09:02.240Z,76.81
2019-05-22T16:11:34.354Z,78.22
2019-05-22T16:14:05.258Z,76.73
2019-05-22T16:16:36.570Z,76.83
2019-05-22T16:19:09.155Z,78.93
2019-05-22T16:21:42.106Z,76.42
2019-05-22T16:24:13.693Z,76.25
2019-05-22T16:26:47.329Z,76.47
2019-05-22T16:32:47.670Z,76.71
2019-05-22T16:35:27.238Z,77.60
2019-05-22T16:38:04.502Z,78.32
2019-05-22T16:40:39.687Z,79.35
2019-05-22T16:43:14.916Z,79.01
2019-05-22T16:45:45.109Z,79.27
2019-05-22T16:48:28.598Z,78.72
2019-05-22T16:50:48.376Z,79.00
2019-05-22T16:53:19.429Z,79.69
2019-05-22T16:55:49.897Z,80.34
2019-05-22T16:58:20.857Z,80.46
2019-05-22T17:00:51.055Z,80.81
2019-05-22T17:03:21.736Z,80.32
2019-05-22T17:05:51.572Z,80.31
2019-05-22T17:08:22.686Z,81.73
2019-05-22T17:10:53.221Z,81.57
2019-05-22T17:13:23.728Z,80.82
2019-05-22T17:15:53.951Z,81.16
2019-05-22T17:18:24.578Z,80.85
2019-05-22T17:20:55.904Z,82.27
2019-05-22T17:23:26.509Z,81.16
2019-05-22T17:25:58.279Z,81.64
2019-05-22T17:28:29.310Z,83.10
2019-05-22T17:30:59.958Z,81.73
2019-05-22T17:33:31.635Z,82.27
2019-05-22T17:36:05.378Z,82.25
2019-05-22T17:38:34.394Z,82.17
2019-05-22T17:41:05.134Z,83.05
2019-05-22T17:43:36.656Z,83.54
2019-05-22T17:46:06.851Z,83.62
2019-05-22T17:48:38.203Z,83.09
2019-05-22T17:51:08.320Z,82.65
2019-05-22T17:53:38.150Z,82.82
2019-05-22T17:56:08.011Z,84.73
2019-05-22T17:58:38.406Z,86.20
2019-05-22T18:01:09.322Z,86.44
2019-05-22T18:03:39.274Z,86.55
2019-05-22T18:06:09.618Z,85.22
2019-05-22T18:08:39.769Z,84.43
2019-05-22T18:11:10.789Z,84.62
2019-05-22T18:14:00.892Z,85.03
2019-05-22T18:16:32.457Z,85.71
2019-05-22T18:19:02.816Z,85.97
2019-05-22T18:21:33.909Z,84.99
2019-05-22T18:24:04.335Z,85.55
2019-05-22T18:26:34.487Z,85.67
2019-05-22T18:29:04.590Z,86.12
2019-05-22T18:31:34.736Z,86.84
2019-05-22T18:34:04.683Z,86.90
2019-05-22T18:36:34.594Z,86.20
2019-05-22T18:39:06.698Z,86.85
2019-05-22T18:41:36.400Z,87.36
2019-05-22T18:44:06.698Z,88.37
2019-05-22T18:46:36.594Z,88.92
2019-05-22T18:49:06.348Z,88.32
2019-05-22T18:51:36.178Z,87.36
2019-05-22T18:54:05.994Z,88.28
2019-05-22T18:56:35.939Z,88.85
2019-05-22T18:59:05.855Z,89.68
2019-05-22T19:01:35.707Z,90.70
2019-05-22T19:04:05.744Z,89.80
2019-05-22T19:06:35.951Z,89.76
2019-05-22T19:09:08.686Z,90.26
2019-05-22T19:11:38.875Z,90.03
2019-05-22T19:14:09.228Z,90.43
2019-05-22T19:16:39.154Z,90.10
2019-05-22T19:19:09.304Z,89.96
2019-05-22T19:21:39.173Z,90.61
2019-05-22T19:24:09.202Z,90.50
2019-05-22T19:26:39.342Z,91.49
2019-05-22T19:29:09.785Z,92.16
2019-05-22T19:31:39.621Z,92.05
2019-05-22T19:34:11.184Z,92.70
2019-05-22T19:36:42.758Z,92.70
2019-05-22T19:39:15.812Z,92.40
2019-05-22T19:41:59.890Z,93.21
2019-05-22T19:44:17.933Z,93.26
2019-05-22T19:46:48.444Z,93.27
2019-05-22T19:49:24.425Z,94.27
2019-05-22T19:51:56.251Z,94.32
2019-05-22T19:54:26.882Z,94.48
2019-05-22T19:56:57.500Z,94.47
2019-05-22T19:59:27.350Z,95.05
2019-05-22T20:01:57.714Z,94.62
2019-05-22T20:04:28.347Z,95.13
2019-05-22T20:07:09.794Z,94.75
2019-05-22T20:09:45.024Z,93.85
2019-05-22T20:12:19.412Z,93.79
2019-05-22T20:14:50.356Z,93.96
2019-05-22T20:17:20.375Z,93.26
2019-05-22T20:19:53.855Z,93.68
2019-05-22T20:22:22.809Z,92.98
2019-05-22T20:24:53.429Z,91.78
2019-05-22T20:27:24.168Z,91.17
2019-05-22T20:29:54.238Z,91.34
2019-05-22T20:32:24.135Z,91.35
2019-05-22T20:34:54.810Z,91.42
2019-05-22T20:37:24.570Z,89.96
2019-05-22T20:39:54.503Z,89.26
2019-05-22T20:42:24.652Z,90.40
2019-05-22T20:44:54.718Z,89.89
2019-05-22T20:47:26.995Z,90.42
2019-05-22T20:49:57.585Z,91.62
2019-05-22T20:52:30.244Z,90.20
2019-05-22T20:55:02.444Z,91.11
2019-05-22T20:57:33.684Z,91.78
2019-05-22T21:00:06.775Z,92.35
2019-05-22T21:02:40.179Z,93.17
2019-05-22T21:05:13.324Z,93.75
2019-05-22T21:07:49.173Z,94.45
2019-05-22T21:10:23.422Z,95.14
2019-05-22T21:12:54.560Z,95.60
2019-05-22T21:15:24.731Z,95.70
2019-05-22T21:17:56.284Z,96.00
2019-05-22T21:20:28.205Z,96.57
2019-05-22T21:22:59.245Z,96.76
2019-05-22T21:25:29.510Z,97.06
2019-05-22T21:27:59.461Z,98.09
2019-05-22T21:30:29.585Z,98.59
2019-05-22T21:33:00.011Z,98.97
2019-05-22T21:35:30.029Z,99.83
2019-05-22T21:37:59.914Z,100.00
2019-05-22T21:40:29.660Z,100.00
2019-05-22T21:43:00.924Z,100.00
2019-05-22T21:45:31.350Z,100.00
2019-05-22T21:48:01.278Z,100.00
2019-05-22T21:50:32.267Z,100.00
2019-05-22T21:53:03.120Z,100.00
2019-05-22T21:55:33.294Z,100.00
2019-05-22T21:58:04.779Z,100.00
2019-05-22T22:00:42.190Z,100.00
2019-05-22T22:03:19.689Z,100.00
2019-05-22T22:05:50.295Z,100.00
2019-05-22T22:08:20.828Z,100.00
2019-05-22T22:10:51.378Z,100.00
2019-05-22T22:13:21.295Z,100.00
2019-05-22T22:15:51.575Z,100.00
2019-05-22T22:18:24.628Z,100.00
2019-05-22T22:20:53.926Z,100.00
2019-05-22T22:23:25.321Z,100.00
2019-05-22T22:25:55.362Z,100.00
2019-05-22T22:28:25.897Z,100.00
2019-05-22T22:31:10.370Z,100.00
2019-05-22T22:33:42.413Z,100.00
2019-05-22T22:36:12.431Z,100.00
2019-05-22T22:38:43.803Z,100.00
2019-05-22T22:41:14.177Z,100.00
2019-05-22T22:43:48.614Z,100.00
2019-05-22T22:46:31.886Z,100.00
2019-05-22T22:49:03.403Z,100.00
2019-05-22T22:51:35.225Z,100.00
2019-05-22T22:54:06.922Z,100.00
2019-05-22T22:56:37.667Z,100.00
2019-05-22T22:59:08.260Z,100.00
2019-05-22T23:01:41.455Z,100.00
2019-05-22T23:04:12.614Z,100.00
2019-05-22T23:06:43.017Z,100.00
2019-05-22T23:09:12.872Z,100.00
2019-05-22T23:11:43.508Z,100.00
2019-05-22T23:14:15.691Z,100.00
2019-05-22T23:16:46.193Z,100.00
2019-05-22T23:19:21.707Z,100.00
2019-05-22T23:21:50.432Z,100.00
2019-05-22T23:24:20.782Z,100.00
2019-05-22T23:26:51.944Z,100.00
2019-05-22T23:29:22.495Z,100.00
2019-05-22T23:31:54.523Z,100.00
2019-05-22T23:34:24.604Z,100.00
2019-05-22T23:36:55.469Z,100.00
2019-05-22T23:39:25.522Z,100.00
2019-05-22T23:41:57.322Z,100.00
2019-05-22T23:44:28.435Z,100.00
2019-05-22T23:47:01.538Z,100.00
2019-05-22T23:49:33.882Z,100.00
2019-05-22T23:52:04.368Z,100.00
2019-05-22T23:54:35.024Z,100.00
2019-05-22T23:57:06.006Z,100.00
2019-05-22T23:59:36.739Z,100.00
